sensor_id;sensor_type;location;lat;lon;timestamp;temperature;humidity
15099;DHT22;33900;53.640;9.942;2023-01-15T00:01:33;10.70;94.00
15099;DHT22;33900;53.640;9.942;2023-01-15T00:03:59;10.70;93.90
15099;DHT22;33900;53.640;9.942;2023-01-15T00:06:28;10.60;93.80
15099;DHT22;33900;53.640;9.942;2023-01-15T00:08:53;10.60;93.90
15099;DHT22;33900;53.640;9.942;2023-01-15T00:11:19;10.60;93.90
15099;DHT22;33900;53.640;9.942;2023-01-15T00:13:45;10.60;94.00
15099;DHT22;33900;53.640;9.942;2023-01-15T00:16:21;10.60;93.90
15099;DHT22;33900;53.640;9.942;2023-01-15T00:18:48;10.60;93.90
15099;DHT22;33900;53.640;9.942;2023-01-15T00:21:14;10.50;93.90
15099;DHT22;33900;53.640;9.942;2023-01-15T00:23:40;10.60;93.80
15099;DHT22;33900;53.640;9.942;2023-01-15T00:26:29;10.60;93.80
15099;DHT22;33900;53.640;9.942;2023-01-15T00:29:14;10.50;93.90
15099;DHT22;33900;53.640;9.942;2023-01-15T00:31:41;10.50;93.80
15099;DHT22;33900;53.640;9.942;2023-01-15T00:34:06;10.50;93.90
15099;DHT22;33900;53.640;9.942;2023-01-15T00:36:32;10.50;93.90
15099;DHT22;33900;53.640;9.942;2023-01-15T00:38:59;10.50;93.90
15099;DHT22;33900;53.640;9.942;2023-01-15T00:41:25;10.50;93.80
15099;DHT22;33900;53.640;9.942;2023-01-15T00:43:50;10.50;93.80
15099;DHT22;33900;53.640;9.942;2023-01-15T00:46:17;10.50;93.80
15099;DHT22;33900;53.640;9.942;2023-01-15T00:48:43;10.40;93.80
15099;DHT22;33900;53.640;9.942;2023-01-15T00:51:08;10.50;93.60
15099;DHT22;33900;53.640;9.942;2023-01-15T00:53:34;10.40;93.90
15099;DHT22;33900;53.640;9.942;2023-01-15T00:56:00;10.40;93.60
15099;DHT22;33900;53.640;9.942;2023-01-15T00:58:27;10.40;93.70
15099;DHT22;33900;53.640;9.942;2023-01-15T01:00:53;10.40;93.60
15099;DHT22;33900;53.640;9.942;2023-01-15T01:03:20;10.30;93.60
15099;DHT22;33900;53.640;9.942;2023-01-15T01:05:45;10.30;93.70
15099;DHT22;33900;53.640;9.942;2023-01-15T01:08:12;10.30;93.70
15099;DHT22;33900;53.640;9.942;2023-01-15T01:10:38;10.30;93.00
15099;DHT22;33900;53.640;9.942;2023-01-15T01:13:05;10.20;93.20
15099;DHT22;33900;53.640;9.942;2023-01-15T01:15:34;10.20;93.30
15099;DHT22;33900;53.640;9.942;2023-01-15T01:18:00;10.20;93.40
15099;DHT22;33900;53.640;9.942;2023-01-15T01:20:26;10.20;93.50
15099;DHT22;33900;53.640;9.942;2023-01-15T01:22:52;10.10;93.50
15099;DHT22;33900;53.640;9.942;2023-01-15T01:25:18;10.10;93.50
15099;DHT22;33900;53.640;9.942;2023-01-15T01:27:44;10.10;93.50
15099;DHT22;33900;53.640;9.942;2023-01-15T01:30:10;10.10;93.50
15099;DHT22;33900;53.640;9.942;2023-01-15T01:32:36;10.10;93.60
15099;DHT22;33900;53.640;9.942;2023-01-15T01:35:02;10.10;93.60
15099;DHT22;33900;53.640;9.942;2023-01-15T01:37:27;10.10;93.60
15099;DHT22;33900;53.640;9.942;2023-01-15T01:39:53;10.10;93.60
15099;DHT22;33900;53.640;9.942;2023-01-15T01:42:19;10.00;93.60
15099;DHT22;33900;53.640;9.942;2023-01-15T01:47:14;10.10;93.70
15099;DHT22;33900;53.640;9.942;2023-01-15T01:49:43;10.00;93.80
15099;DHT22;33900;53.640;9.942;2023-01-15T01:52:13;10.10;93.80
15099;DHT22;33900;53.640;9.942;2023-01-15T01:54:40;10.10;93.70
15099;DHT22;33900;53.640;9.942;2023-01-15T01:57:06;10.00;93.70
15099;DHT22;33900;53.640;9.942;2023-01-15T01:59:33;10.00;93.70
15099;DHT22;33900;53.640;9.942;2023-01-15T02:01:59;10.00;93.70
15099;DHT22;33900;53.640;9.942;2023-01-15T02:04:25;10.10;93.80
15099;DHT22;33900;53.640;9.942;2023-01-15T02:06:52;10.00;93.80
15099;DHT22;33900;53.640;9.942;2023-01-15T02:09:18;10.00;93.80
15099;DHT22;33900;53.640;9.942;2023-01-15T02:11:43;10.00;93.80
15099;DHT22;33900;53.640;9.942;2023-01-15T02:14:12;10.00;93.80
15099;DHT22;33900;53.640;9.942;2023-01-15T02:16:45;10.00;93.80
15099;DHT22;33900;53.640;9.942;2023-01-15T02:24:21;10.00;93.60
15099;DHT22;33900;53.640;9.942;2023-01-15T02:26:49;10.00;93.50
15099;DHT22;33900;53.640;9.942;2023-01-15T02:29:19;9.90;93.60
15099;DHT22;33900;53.640;9.942;2023-01-15T02:31:49;9.90;93.70
15099;DHT22;33900;53.640;9.942;2023-01-15T02:34:19;9.90;93.70
15099;DHT22;33900;53.640;9.942;2023-01-15T02:36:49;9.90;93.70
15099;DHT22;33900;53.640;9.942;2023-01-15T02:39:23;9.90;93.70
15099;DHT22;33900;53.640;9.942;2023-01-15T02:41:52;9.90;93.70
15099;DHT22;33900;53.640;9.942;2023-01-15T02:44:19;9.90;93.80
15099;DHT22;33900;53.640;9.942;2023-01-15T02:46:46;9.90;93.80
15099;DHT22;33900;53.640;9.942;2023-01-15T02:49:13;9.90;93.80
15099;DHT22;33900;53.640;9.942;2023-01-15T02:51:46;9.90;93.70
15099;DHT22;33900;53.640;9.942;2023-01-15T02:54:16;10.00;93.70
15099;DHT22;33900;53.640;9.942;2023-01-15T02:56:43;9.90;93.70
15099;DHT22;33900;53.640;9.942;2023-01-15T02:59:12;9.90;93.70
15099;DHT22;33900;53.640;9.942;2023-01-15T03:01:44;9.90;93.50
15099;DHT22;33900;53.640;9.942;2023-01-15T03:04:14;9.90;93.40
15099;DHT22;33900;53.640;9.942;2023-01-15T03:06:42;9.90;93.40
15099;DHT22;33900;53.640;9.942;2023-01-15T03:09:10;9.90;93.40
15099;DHT22;33900;53.640;9.942;2023-01-15T03:11:37;9.90;93.40
15099;DHT22;33900;53.640;9.942;2023-01-15T03:17:02;9.90;93.40
15099;DHT22;33900;53.640;9.942;2023-01-15T03:19:30;9.90;93.40
15099;DHT22;33900;53.640;9.942;2023-01-15T03:22:08;9.90;93.30
15099;DHT22;33900;53.640;9.942;2023-01-15T03:27:07;9.90;93.20
15099;DHT22;33900;53.640;9.942;2023-01-15T03:32:21;9.90;93.30
15099;DHT22;33900;53.640;9.942;2023-01-15T03:34:54;9.90;93.30
15099;DHT22;33900;53.640;9.942;2023-01-15T03:37:21;9.90;93.30
15099;DHT22;33900;53.640;9.942;2023-01-15T03:39:48;9.90;93.20
15099;DHT22;33900;53.640;9.942;2023-01-15T03:50:04;9.80;92.70
15099;DHT22;33900;53.640;9.942;2023-01-15T03:55:43;9.90;93.00
15099;DHT22;33900;53.640;9.942;2023-01-15T03:58:13;9.90;93.00
15099;DHT22;33900;53.640;9.942;2023-01-15T04:00:42;9.90;92.90
15099;DHT22;33900;53.640;9.942;2023-01-15T04:03:09;9.80;92.80
15099;DHT22;33900;53.640;9.942;2023-01-15T04:05:35;9.80;92.80
15099;DHT22;33900;53.640;9.942;2023-01-15T04:08:02;9.80;92.80
15099;DHT22;33900;53.640;9.942;2023-01-15T04:10:30;9.90;92.90
15099;DHT22;33900;53.640;9.942;2023-01-15T04:12:57;9.80;92.70
15099;DHT22;33900;53.640;9.942;2023-01-15T04:15:22;9.80;92.80
15099;DHT22;33900;53.640;9.942;2023-01-15T04:17:48;9.80;92.80
15099;DHT22;33900;53.640;9.942;2023-01-15T04:20:15;9.80;92.70
15099;DHT22;33900;53.640;9.942;2023-01-15T04:22:42;9.80;92.80
15099;DHT22;33900;53.640;9.942;2023-01-15T04:25:08;9.80;92.60
15099;DHT22;33900;53.640;9.942;2023-01-15T04:27:34;9.80;92.70
15099;DHT22;33900;53.640;9.942;2023-01-15T04:30:00;9.70;92.60
15099;DHT22;33900;53.640;9.942;2023-01-15T04:32:25;9.80;92.70
15099;DHT22;33900;53.640;9.942;2023-01-15T04:34:51;9.80;92.50
15099;DHT22;33900;53.640;9.942;2023-01-15T04:37:17;9.80;92.50
15099;DHT22;33900;53.640;9.942;2023-01-15T04:39:43;9.80;92.60
15099;DHT22;33900;53.640;9.942;2023-01-15T04:42:12;9.80;92.40
15099;DHT22;33900;53.640;9.942;2023-01-15T04:44:57;9.80;92.10
15099;DHT22;33900;53.640;9.942;2023-01-15T04:47:22;9.80;92.60
15099;DHT22;33900;53.640;9.942;2023-01-15T04:49:48;9.70;92.10
15099;DHT22;33900;53.640;9.942;2023-01-15T04:52:14;9.80;92.20
15099;DHT22;33900;53.640;9.942;2023-01-15T04:54:40;9.80;92.20
15099;DHT22;33900;53.640;9.942;2023-01-15T04:57:05;9.70;92.30
15099;DHT22;33900;53.640;9.942;2023-01-15T04:59:31;9.70;92.20
15099;DHT22;33900;53.640;9.942;2023-01-15T05:01:56;9.70;92.20
15099;DHT22;33900;53.640;9.942;2023-01-15T05:04:22;9.70;92.20
15099;DHT22;33900;53.640;9.942;2023-01-15T05:06:47;9.70;92.20
15099;DHT22;33900;53.640;9.942;2023-01-15T05:09:13;9.70;92.10
15099;DHT22;33900;53.640;9.942;2023-01-15T05:11:39;9.80;92.00
15099;DHT22;33900;53.640;9.942;2023-01-15T05:14:05;9.70;92.00
15099;DHT22;33900;53.640;9.942;2023-01-15T05:16:31;9.70;91.90
15099;DHT22;33900;53.640;9.942;2023-01-15T05:18:58;9.70;91.90
15099;DHT22;33900;53.640;9.942;2023-01-15T05:21:31;9.70;91.80
15099;DHT22;33900;53.640;9.942;2023-01-15T05:23:58;9.70;91.80
15099;DHT22;33900;53.640;9.942;2023-01-15T05:26:25;9.60;91.80
15099;DHT22;33900;53.640;9.942;2023-01-15T05:28:54;9.60;91.90
15099;DHT22;33900;53.640;9.942;2023-01-15T05:31:20;9.70;92.00
15099;DHT22;33900;53.640;9.942;2023-01-15T05:33:46;9.70;91.90
15099;DHT22;33900;53.640;9.942;2023-01-15T05:36:14;9.70;91.90
15099;DHT22;33900;53.640;9.942;2023-01-15T05:38:40;9.70;91.90
15099;DHT22;33900;53.640;9.942;2023-01-15T05:41:06;9.70;91.90
15099;DHT22;33900;53.640;9.942;2023-01-15T05:43:53;9.70;91.80
15099;DHT22;33900;53.640;9.942;2023-01-15T05:46:19;9.70;91.80
15099;DHT22;33900;53.640;9.942;2023-01-15T05:48:45;9.70;91.80
15099;DHT22;33900;53.640;9.942;2023-01-15T05:51:10;9.70;91.60
15099;DHT22;33900;53.640;9.942;2023-01-15T05:53:36;9.60;91.50
15099;DHT22;33900;53.640;9.942;2023-01-15T05:56:02;9.70;91.50
15099;DHT22;33900;53.640;9.942;2023-01-15T05:58:28;9.70;91.40
15099;DHT22;33900;53.640;9.942;2023-01-15T06:00:54;9.60;91.40
15099;DHT22;33900;53.640;9.942;2023-01-15T06:03:22;9.60;91.30
15099;DHT22;33900;53.640;9.942;2023-01-15T06:05:50;9.60;91.30
15099;DHT22;33900;53.640;9.942;2023-01-15T06:08:16;9.60;91.30
15099;DHT22;33900;53.640;9.942;2023-01-15T06:10:45;9.60;91.30
15099;DHT22;33900;53.640;9.942;2023-01-15T06:13:11;9.60;91.40
15099;DHT22;33900;53.640;9.942;2023-01-15T06:15:37;9.60;91.20
15099;DHT22;33900;53.640;9.942;2023-01-15T06:18:03;9.60;91.20
15099;DHT22;33900;53.640;9.942;2023-01-15T06:20:28;9.60;91.10
15099;DHT22;33900;53.640;9.942;2023-01-15T06:22:57;9.60;91.20
15099;DHT22;33900;53.640;9.942;2023-01-15T06:25:23;9.60;91.20
15099;DHT22;33900;53.640;9.942;2023-01-15T06:27:49;9.60;91.20
15099;DHT22;33900;53.640;9.942;2023-01-15T06:30:14;9.60;91.00
15099;DHT22;33900;53.640;9.942;2023-01-15T06:32:40;9.60;90.90
15099;DHT22;33900;53.640;9.942;2023-01-15T06:35:06;9.60;90.90
15099;DHT22;33900;53.640;9.942;2023-01-15T06:37:31;9.60;91.10
15099;DHT22;33900;53.640;9.942;2023-01-15T06:39:57;9.60;91.10
15099;DHT22;33900;53.640;9.942;2023-01-15T06:42:22;9.60;91.10
15099;DHT22;33900;53.640;9.942;2023-01-15T06:45:08;9.60;90.90
15099;DHT22;33900;53.640;9.942;2023-01-15T06:47:53;9.60;90.80
15099;DHT22;33900;53.640;9.942;2023-01-15T06:50:18;9.60;90.80
15099;DHT22;33900;53.640;9.942;2023-01-15T06:52:44;9.70;90.70
15099;DHT22;33900;53.640;9.942;2023-01-15T06:55:09;9.70;90.60
15099;DHT22;33900;53.640;9.942;2023-01-15T06:57:39;9.70;90.60
15099;DHT22;33900;53.640;9.942;2023-01-15T07:00:07;9.60;90.50
15099;DHT22;33900;53.640;9.942;2023-01-15T07:02:35;9.60;90.50
15099;DHT22;33900;53.640;9.942;2023-01-15T07:05:02;9.70;90.60
15099;DHT22;33900;53.640;9.942;2023-01-15T07:07:35;9.70;90.40
15099;DHT22;33900;53.640;9.942;2023-01-15T07:10:05;9.70;90.40
15099;DHT22;33900;53.640;9.942;2023-01-15T07:12:34;9.70;90.50
15099;DHT22;33900;53.640;9.942;2023-01-15T07:15:00;9.70;90.20
15099;DHT22;33900;53.640;9.942;2023-01-15T07:17:26;9.70;90.20
15099;DHT22;33900;53.640;9.942;2023-01-15T07:19:54;9.70;90.10
15099;DHT22;33900;53.640;9.942;2023-01-15T07:22:28;9.70;90.20
15099;DHT22;33900;53.640;9.942;2023-01-15T07:24:54;9.70;90.20
15099;DHT22;33900;53.640;9.942;2023-01-15T07:27:46;9.70;90.20
15099;DHT22;33900;53.640;9.942;2023-01-15T07:30:25;9.70;90.30
15099;DHT22;33900;53.640;9.942;2023-01-15T07:32:55;9.70;90.20
15099;DHT22;33900;53.640;9.942;2023-01-15T07:35:23;9.70;90.00
15099;DHT22;33900;53.640;9.942;2023-01-15T07:37:50;9.70;90.00
15099;DHT22;33900;53.640;9.942;2023-01-15T07:40:16;9.70;90.00
15099;DHT22;33900;53.640;9.942;2023-01-15T07:42:44;9.70;90.10
15099;DHT22;33900;53.640;9.942;2023-01-15T07:45:29;9.70;90.10
15099;DHT22;33900;53.640;9.942;2023-01-15T07:48:14;9.70;90.10
15099;DHT22;33900;53.640;9.942;2023-01-15T07:50:59;9.70;90.10
15099;DHT22;33900;53.640;9.942;2023-01-15T07:53:28;9.70;90.00
15099;DHT22;33900;53.640;9.942;2023-01-15T07:55:54;9.70;89.80
15099;DHT22;33900;53.640;9.942;2023-01-15T07:58:20;9.70;89.70
15099;DHT22;33900;53.640;9.942;2023-01-15T08:00:46;9.70;89.70
15099;DHT22;33900;53.640;9.942;2023-01-15T08:03:12;9.70;89.70
15099;DHT22;33900;53.640;9.942;2023-01-15T08:05:38;9.60;89.30
15099;DHT22;33900;53.640;9.942;2023-01-15T08:08:16;9.60;89.50
15099;DHT22;33900;53.640;9.942;2023-01-15T08:10:43;9.60;89.30
15099;DHT22;33900;53.640;9.942;2023-01-15T08:13:28;9.60;89.30
15099;DHT22;33900;53.640;9.942;2023-01-15T08:16:12;9.70;89.60
15099;DHT22;33900;53.640;9.942;2023-01-15T08:18:38;9.60;89.00
15099;DHT22;33900;53.640;9.942;2023-01-15T08:21:04;9.60;88.70
15099;DHT22;33900;53.640;9.942;2023-01-15T08:23:30;9.60;89.10
15099;DHT22;33900;53.640;9.942;2023-01-15T08:25:59;9.60;88.90
15099;DHT22;33900;53.640;9.942;2023-01-15T08:28:25;9.60;88.40
15099;DHT22;33900;53.640;9.942;2023-01-15T08:30:54;9.60;88.30
15099;DHT22;33900;53.640;9.942;2023-01-15T08:33:20;9.60;88.30
15099;DHT22;33900;53.640;9.942;2023-01-15T08:35:46;9.60;88.40
15099;DHT22;33900;53.640;9.942;2023-01-15T08:38:11;9.60;88.10
15099;DHT22;33900;53.640;9.942;2023-01-15T08:40:37;9.60;86.90
15099;DHT22;33900;53.640;9.942;2023-01-15T08:43:23;9.50;86.50
15099;DHT22;33900;53.640;9.942;2023-01-15T08:45:49;9.50;87.10
15099;DHT22;33900;53.640;9.942;2023-01-15T08:48:18;9.50;87.70
15099;DHT22;33900;53.640;9.942;2023-01-15T08:50:44;9.40;87.60
15099;DHT22;33900;53.640;9.942;2023-01-15T08:53:12;9.50;86.80
15099;DHT22;33900;53.640;9.942;2023-01-15T08:55:38;9.50;87.20
15099;DHT22;33900;53.640;9.942;2023-01-15T08:58:07;9.40;87.30
15099;DHT22;33900;53.640;9.942;2023-01-15T09:00:32;9.40;87.30
15099;DHT22;33900;53.640;9.942;2023-01-15T09:03:01;9.40;87.20
15099;DHT22;33900;53.640;9.942;2023-01-15T09:05:27;9.40;87.20
15099;DHT22;33900;53.640;9.942;2023-01-15T09:07:53;9.40;87.50
15099;DHT22;33900;53.640;9.942;2023-01-15T09:10:25;9.40;87.70
15099;DHT22;33900;53.640;9.942;2023-01-15T09:12:53;9.40;87.50
15099;DHT22;33900;53.640;9.942;2023-01-15T09:15:19;9.40;87.30
15099;DHT22;33900;53.640;9.942;2023-01-15T09:17:45;9.40;86.80
15099;DHT22;33900;53.640;9.942;2023-01-15T09:20:12;9.40;87.20
15099;DHT22;33900;53.640;9.942;2023-01-15T09:22:38;9.40;87.40
15099;DHT22;33900;53.640;9.942;2023-01-15T09:25:07;9.40;87.80
15099;DHT22;33900;53.640;9.942;2023-01-15T09:27:34;9.40;87.60
15099;DHT22;33900;53.640;9.942;2023-01-15T09:30:02;9.40;87.60
15099;DHT22;33900;53.640;9.942;2023-01-15T09:32:29;9.40;87.50
15099;DHT22;33900;53.640;9.942;2023-01-15T09:34:57;9.40;87.50
15099;DHT22;33900;53.640;9.942;2023-01-15T09:37:23;9.40;87.00
15099;DHT22;33900;53.640;9.942;2023-01-15T09:39:58;9.40;87.40
15099;DHT22;33900;53.640;9.942;2023-01-15T09:42:32;9.40;87.70
15099;DHT22;33900;53.640;9.942;2023-01-15T09:48:16;9.50;87.00
15099;DHT22;33900;53.640;9.942;2023-01-15T09:53:21;9.50;86.80
15099;DHT22;33900;53.640;9.942;2023-01-15T09:56:01;9.50;85.70
15099;DHT22;33900;53.640;9.942;2023-01-15T09:58:32;9.50;86.00
15099;DHT22;33900;53.640;9.942;2023-01-15T10:01:01;9.60;86.20
15099;DHT22;33900;53.640;9.942;2023-01-15T10:06:05;9.60;85.50
15099;DHT22;33900;53.640;9.942;2023-01-15T10:11:04;9.60;85.00
15099;DHT22;33900;53.640;9.942;2023-01-15T10:16:08;9.60;84.10
15099;DHT22;33900;53.640;9.942;2023-01-15T10:18:36;9.60;83.10
15099;DHT22;33900;53.640;9.942;2023-01-15T10:26:13;9.60;83.20
15099;DHT22;33900;53.640;9.942;2023-01-15T10:31:19;9.50;82.20
15099;DHT22;33900;53.640;9.942;2023-01-15T10:36:38;9.60;82.10
15099;DHT22;33900;53.640;9.942;2023-01-15T10:44:08;9.50;82.00
15099;DHT22;33900;53.640;9.942;2023-01-15T10:46:36;9.50;81.80
15099;DHT22;33900;53.640;9.942;2023-01-15T10:49:13;9.50;82.50
15099;DHT22;33900;53.640;9.942;2023-01-15T10:51:51;9.50;82.80
15099;DHT22;33900;53.640;9.942;2023-01-15T11:01:55;9.60;81.80
15099;DHT22;33900;53.640;9.942;2023-01-15T11:04:24;9.60;82.10
15099;DHT22;33900;53.640;9.942;2023-01-15T11:06:51;9.60;82.40
15099;DHT22;33900;53.640;9.942;2023-01-15T11:09:22;9.60;82.10
15099;DHT22;33900;53.640;9.942;2023-01-15T11:11:49;9.60;82.10
15099;DHT22;33900;53.640;9.942;2023-01-15T11:14:31;9.60;81.70
15099;DHT22;33900;53.640;9.942;2023-01-15T11:17:17;9.60;81.60
15099;DHT22;33900;53.640;9.942;2023-01-15T11:20:15;9.60;81.40
15099;DHT22;33900;53.640;9.942;2023-01-15T11:23:06;9.60;81.30
15099;DHT22;33900;53.640;9.942;2023-01-15T11:25:35;9.60;81.60
15099;DHT22;33900;53.640;9.942;2023-01-15T11:28:04;9.60;81.20
15099;DHT22;33900;53.640;9.942;2023-01-15T11:30:32;9.70;81.10
15099;DHT22;33900;53.640;9.942;2023-01-15T11:32:59;9.70;80.20
15099;DHT22;33900;53.640;9.942;2023-01-15T11:35:31;9.50;79.60
15099;DHT22;33900;53.640;9.942;2023-01-15T11:38:15;9.60;80.30
15099;DHT22;33900;53.640;9.942;2023-01-15T11:43:42;9.60;79.80
15099;DHT22;33900;53.640;9.942;2023-01-15T11:46:30;9.60;80.20
15099;DHT22;33900;53.640;9.942;2023-01-15T11:49:18;9.50;80.10
15099;DHT22;33900;53.640;9.942;2023-01-15T11:52:05;9.50;79.80
15099;DHT22;33900;53.640;9.942;2023-01-15T11:54:35;9.50;80.10
15099;DHT22;33900;53.640;9.942;2023-01-15T11:57:02;9.50;79.70
15099;DHT22;33900;53.640;9.942;2023-01-15T11:59:31;9.50;80.00
15099;DHT22;33900;53.640;9.942;2023-01-15T12:02:01;9.40;80.00
15099;DHT22;33900;53.640;9.942;2023-01-15T12:04:36;9.40;80.50
15099;DHT22;33900;53.640;9.942;2023-01-15T12:07:03;9.30;80.50
15099;DHT22;33900;53.640;9.942;2023-01-15T12:12:22;9.20;81.40
15099;DHT22;33900;53.640;9.942;2023-01-15T12:35:34;9.50;81.10
15099;DHT22;33900;53.640;9.942;2023-01-15T12:40:32;9.60;80.80
15099;DHT22;33900;53.640;9.942;2023-01-15T12:43:02;9.60;81.50
15099;DHT22;33900;53.640;9.942;2023-01-15T12:45:48;9.70;81.50
15099;DHT22;33900;53.640;9.942;2023-01-15T12:50:55;9.70;81.70
15099;DHT22;33900;53.640;9.942;2023-01-15T13:04:29;9.60;82.10
15099;DHT22;33900;53.640;9.942;2023-01-15T13:06:35;9.60;82.50
15099;DHT22;33900;53.640;9.942;2023-01-15T13:09:25;9.50;82.90
15099;DHT22;33900;53.640;9.942;2023-01-15T13:11:52;9.50;83.10
15099;DHT22;33900;53.640;9.942;2023-01-15T13:14:18;9.50;83.00
15099;DHT22;33900;53.640;9.942;2023-01-15T13:21:44;9.40;83.30
15099;DHT22;33900;53.640;9.942;2023-01-15T13:37:27;9.30;83.90
15099;DHT22;33900;53.640;9.942;2023-01-15T13:39:56;9.30;83.60
15099;DHT22;33900;53.640;9.942;2023-01-15T13:42:23;9.30;83.60
15099;DHT22;33900;53.640;9.942;2023-01-15T13:45:01;9.30;83.50
15099;DHT22;33900;53.640;9.942;2023-01-15T13:47:29;9.30;83.80
15099;DHT22;33900;53.640;9.942;2023-01-15T13:50:03;9.30;83.60
15099;DHT22;33900;53.640;9.942;2023-01-15T13:52:32;9.40;82.80
15099;DHT22;33900;53.640;9.942;2023-01-15T13:55:15;9.40;84.10
15099;DHT22;33900;53.640;9.942;2023-01-15T13:57:44;9.40;83.30
15099;DHT22;33900;53.640;9.942;2023-01-15T14:00:33;9.30;82.90
15099;DHT22;33900;53.640;9.942;2023-01-15T14:03:22;9.40;83.10
15099;DHT22;33900;53.640;9.942;2023-01-15T14:05:56;9.40;83.10
15099;DHT22;33900;53.640;9.942;2023-01-15T14:08:24;9.40;82.20
15099;DHT22;33900;53.640;9.942;2023-01-15T14:10:50;9.40;82.80
15099;DHT22;33900;53.640;9.942;2023-01-15T14:15:50;9.40;82.40
15099;DHT22;33900;53.640;9.942;2023-01-15T14:21:05;9.40;82.40
15099;DHT22;33900;53.640;9.942;2023-01-15T14:26:16;9.40;82.70
15099;DHT22;33900;53.640;9.942;2023-01-15T14:36:59;9.50;82.60
15099;DHT22;33900;53.640;9.942;2023-01-15T14:39:28;9.50;82.20
15099;DHT22;33900;53.640;9.942;2023-01-15T14:42:03;9.50;82.50
15099;DHT22;33900;53.640;9.942;2023-01-15T14:44:57;9.50;82.50
15099;DHT22;33900;53.640;9.942;2023-01-15T14:47:31;9.50;82.70
15099;DHT22;33900;53.640;9.942;2023-01-15T14:50:20;9.50;82.30
15099;DHT22;33900;53.640;9.942;2023-01-15T14:52:45;9.50;82.50
15099;DHT22;33900;53.640;9.942;2023-01-15T14:55:11;9.50;82.30
15099;DHT22;33900;53.640;9.942;2023-01-15T14:57:37;9.60;82.00
15099;DHT22;33900;53.640;9.942;2023-01-15T15:00:06;9.60;82.40
15099;DHT22;33900;53.640;9.942;2023-01-15T15:02:38;9.60;82.50
15099;DHT22;33900;53.640;9.942;2023-01-15T15:05:12;9.60;82.70
15099;DHT22;33900;53.640;9.942;2023-01-15T15:07:43;9.60;82.60
15099;DHT22;33900;53.640;9.942;2023-01-15T15:17:56;9.50;85.00
15099;DHT22;33900;53.640;9.942;2023-01-15T15:23:17;9.50;87.30
15099;DHT22;33900;53.640;9.942;2023-01-15T15:25:47;9.40;88.40
15099;DHT22;33900;53.640;9.942;2023-01-15T15:28:22;9.30;88.90
15099;DHT22;33900;53.640;9.942;2023-01-15T15:30:48;9.30;89.30
15099;DHT22;33900;53.640;9.942;2023-01-15T15:33:17;9.30;89.80
15099;DHT22;33900;53.640;9.942;2023-01-15T15:35:54;9.20;90.10
15099;DHT22;33900;53.640;9.942;2023-01-15T15:38:24;9.20;90.40
15099;DHT22;33900;53.640;9.942;2023-01-15T15:40:51;9.10;90.60
15099;DHT22;33900;53.640;9.942;2023-01-15T15:43:23;9.10;90.80
15099;DHT22;33900;53.640;9.942;2023-01-15T15:46:26;9.00;90.80
15099;DHT22;33900;53.640;9.942;2023-01-15T15:49:21;9.00;91.10
15099;DHT22;33900;53.640;9.942;2023-01-15T15:54:19;8.90;91.40
15099;DHT22;33900;53.640;9.942;2023-01-15T16:01:46;8.80;91.70
15099;DHT22;33900;53.640;9.942;2023-01-15T16:04:14;8.80;91.80
15099;DHT22;33900;53.640;9.942;2023-01-15T16:06:40;8.80;91.90
15099;DHT22;33900;53.640;9.942;2023-01-15T16:09:07;8.70;91.90
15099;DHT22;33900;53.640;9.942;2023-01-15T16:11:33;8.70;91.80
15099;DHT22;33900;53.640;9.942;2023-01-15T16:14:02;8.60;91.90
15099;DHT22;33900;53.640;9.942;2023-01-15T16:16:41;8.60;92.00
15099;DHT22;33900;53.640;9.942;2023-01-15T16:19:09;8.60;92.00
15099;DHT22;33900;53.640;9.942;2023-01-15T16:21:40;8.60;92.10
15099;DHT22;33900;53.640;9.942;2023-01-15T16:24:07;8.60;92.20
15099;DHT22;33900;53.640;9.942;2023-01-15T16:29:12;8.60;92.20
15099;DHT22;33900;53.640;9.942;2023-01-15T16:31:40;8.60;92.40
15099;DHT22;33900;53.640;9.942;2023-01-15T16:34:06;8.60;92.30
15099;DHT22;33900;53.640;9.942;2023-01-15T16:36:39;8.60;92.20
15099;DHT22;33900;53.640;9.942;2023-01-15T16:39:14;8.60;92.30
15099;DHT22;33900;53.640;9.942;2023-01-15T16:41:42;8.60;92.30
15099;DHT22;33900;53.640;9.942;2023-01-15T16:44:09;8.60;92.30
15099;DHT22;33900;53.640;9.942;2023-01-15T16:46:50;8.60;92.30
15099;DHT22;33900;53.640;9.942;2023-01-15T16:51:48;8.50;92.30
15099;DHT22;33900;53.640;9.942;2023-01-15T16:54:47;8.50;92.40
15099;DHT22;33900;53.640;9.942;2023-01-15T17:00:10;8.60;92.50
15099;DHT22;33900;53.640;9.942;2023-01-15T17:02:53;8.50;92.20
15099;DHT22;33900;53.640;9.942;2023-01-15T17:05:30;8.50;92.70
15099;DHT22;33900;53.640;9.942;2023-01-15T17:08:05;8.50;92.30
15099;DHT22;33900;53.640;9.942;2023-01-15T17:14:33;8.50;92.50
15099;DHT22;33900;53.640;9.942;2023-01-15T17:16:37;8.50;92.30
15099;DHT22;33900;53.640;9.942;2023-01-15T17:19:04;8.50;92.20
15099;DHT22;33900;53.640;9.942;2023-01-15T17:21:31;8.50;92.40
15099;DHT22;33900;53.640;9.942;2023-01-15T17:24:01;8.50;92.40
15099;DHT22;33900;53.640;9.942;2023-01-15T17:26:46;8.50;92.40
15099;DHT22;33900;53.640;9.942;2023-01-15T17:29:24;8.50;92.30
15099;DHT22;33900;53.640;9.942;2023-01-15T17:31:55;8.50;92.30
15099;DHT22;33900;53.640;9.942;2023-01-15T17:34:25;8.50;92.40
15099;DHT22;33900;53.640;9.942;2023-01-15T17:36:52;8.50;92.40
15099;DHT22;33900;53.640;9.942;2023-01-15T17:39:18;8.50;92.50
15099;DHT22;33900;53.640;9.942;2023-01-15T17:41:50;8.50;92.60
15099;DHT22;33900;53.640;9.942;2023-01-15T17:44:28;8.50;92.50
15099;DHT22;33900;53.640;9.942;2023-01-15T17:47:05;8.50;92.40
15099;DHT22;33900;53.640;9.942;2023-01-15T17:50:01;8.50;92.40
15099;DHT22;33900;53.640;9.942;2023-01-15T17:52:32;8.50;92.40
15099;DHT22;33900;53.640;9.942;2023-01-15T17:55:14;8.60;92.40
15099;DHT22;33900;53.640;9.942;2023-01-15T17:58:19;8.60;92.40
15099;DHT22;33900;53.640;9.942;2023-01-15T18:01:14;8.60;92.40
15099;DHT22;33900;53.640;9.942;2023-01-15T18:04:47;8.60;92.50
15099;DHT22;33900;53.640;9.942;2023-01-15T18:07:06;8.60;92.50
15099;DHT22;33900;53.640;9.942;2023-01-15T18:09:33;8.60;92.50
15099;DHT22;33900;53.640;9.942;2023-01-15T18:12:12;8.60;92.50
15099;DHT22;33900;53.640;9.942;2023-01-15T18:14:48;8.60;92.30
15099;DHT22;33900;53.640;9.942;2023-01-15T18:17:14;8.60;92.40
15099;DHT22;33900;53.640;9.942;2023-01-15T18:19:42;8.60;92.50
15099;DHT22;33900;53.640;9.942;2023-01-15T18:22:07;8.60;92.50
15099;DHT22;33900;53.640;9.942;2023-01-15T18:24:35;8.60;92.50
15099;DHT22;33900;53.640;9.942;2023-01-15T18:27:02;8.70;92.60
15099;DHT22;33900;53.640;9.942;2023-01-15T18:29:27;8.70;92.50
15099;DHT22;33900;53.640;9.942;2023-01-15T18:31:53;8.70;92.40
15099;DHT22;33900;53.640;9.942;2023-01-15T18:34:19;8.70;92.40
15099;DHT22;33900;53.640;9.942;2023-01-15T18:37:05;8.70;92.40
15099;DHT22;33900;53.640;9.942;2023-01-15T18:39:31;8.70;92.40
15099;DHT22;33900;53.640;9.942;2023-01-15T18:41:59;8.80;92.40
15099;DHT22;33900;53.640;9.942;2023-01-15T18:44:25;8.70;92.40
15099;DHT22;33900;53.640;9.942;2023-01-15T18:47:10;8.70;92.20
15099;DHT22;33900;53.640;9.942;2023-01-15T18:49:43;8.70;92.20
15099;DHT22;33900;53.640;9.942;2023-01-15T18:52:10;8.70;92.30
15099;DHT22;33900;53.640;9.942;2023-01-15T18:54:57;8.70;92.30